Time;durP1;ratioP1;P1;durP2;ratioP2;P2;SDS_P1;SDS_P2;PMS_P1;PMS_P2;Temp;Humidity;BMP_temperature;BMP_pressure;BME280_temperature;BME280_humidity;BME280_pressure;Samples;Min_cycle;Max_cycle;Signal;HPM_P1;HPM_P2
2023/10/27 00:01:14;;;;;;;;;1.00;1.00;;;;;;;;5103147;27;45393;-80
2023/10/27 00:03:40;;;;;;;;;1.00;1.00;;;;;;;;5102878;27;45341;-80
2023/10/27 00:06:05;;;;;;;;;2.00;2.00;;;;;;;;5102488;27;45425;-79
2023/10/27 00:08:30;;;;;;;;;1.00;1.00;;;;;;;;5102741;27;45291;-79
2023/10/27 00:10:55;;;;;;;;;1.50;1.50;;;;;;;;5103150;27;45427;-80
2023/10/27 00:13:21;;;;;;;;;0.25;0.25;;;;;;;;5102472;27;45627;-79
2023/10/27 00:15:46;;;;;;;;;1.00;1.00;;;;;;;;5102647;27;46221;-80
2023/10/27 00:18:11;;;;;;;;;0.00;0.00;;;;;;;;5102335;27;45189;-79
2023/10/27 00:20:36;;;;;;;;;0.00;0.00;;;;;;;;5102667;27;45214;-79
2023/10/27 00:23:02;;;;;;;;;1.00;1.00;;;;;;;;5102565;27;45586;-79
2023/10/27 00:25:27;;;;;;;;;1.75;1.75;;;;;;;;5102607;27;45392;-79
2023/10/27 00:27:52;;;;;;;;;1.00;1.00;;;;;;;;5102397;27;45308;-79
2023/10/27 00:30:17;;;;;;;;;0.00;0.00;;;;;;;;5083229;27;45548;-78
2023/10/27 00:32:43;;;;;;;;;0.25;0.25;;;;;;;;5079997;28;46332;-80
2023/10/27 00:35:08;;;;;;;;;0.00;0.00;;;;;;;;5080488;28;48041;-79
2023/10/27 00:37:34;;;;;;;;;1.00;1.00;;;;;;;;5081126;28;45300;-79
2023/10/27 00:40:00;;;;;;;;;0.00;0.00;;;;;;;;5081288;28;45521;-79
2023/10/27 00:42:25;;;;;;;;;0.00;0.00;;;;;;;;5081580;28;45177;-78
2023/10/27 00:44:50;;;;;;;;;0.25;0.25;;;;;;;;5081834;28;46055;-79
2023/10/27 00:47:15;;;;;;;;;0.00;0.00;;;;;;;;5081676;28;45346;-79
2023/10/27 00:49:41;;;;;;;;;0.00;0.00;;;;;;;;5080500;28;45216;-79
2023/10/27 00:52:06;;;;;;;;;0.00;0.00;;;;;;;;5081674;28;45405;-80
2023/10/27 00:54:33;;;;;;;;;0.75;0.75;;;;;;;;5080254;28;47124;-79
2023/10/27 00:56:58;;;;;;;;;0.00;0.00;;;;;;;;5081558;28;45339;-79
2023/10/27 00:59:24;;;;;;;;;0.00;0.00;;;;;;;;5081258;28;45328;-78
2023/10/27 01:01:50;;;;;;;;;0.00;0.00;;;;;;;;5081584;27;45311;-79
2023/10/27 01:04:15;;;;;;;;;0.00;0.00;;;;;;;;5081209;28;45973;-79
2023/10/27 01:06:40;;;;;;;;;0.00;0.00;;;;;;;;5081165;28;45278;-79
2023/10/27 01:09:05;;;;;;;;;0.00;0.00;;;;;;;;5081519;28;45306;-78
2023/10/27 01:11:31;;;;;;;;;0.00;0.00;;;;;;;;5081653;28;45433;-78
2023/10/27 01:13:56;;;;;;;;;0.00;0.00;;;;;;;;5081109;28;45252;-78
2023/10/27 01:16:22;;;;;;;;;0.00;0.00;;;;;;;;5081200;28;45445;-80
2023/10/27 01:18:47;;;;;;;;;0.00;0.00;;;;;;;;5079475;28;45371;-78
2023/10/27 01:21:13;;;;;;;;;1.00;1.00;;;;;;;;5080752;28;45283;-78
2023/10/27 01:23:38;;;;;;;;;2.00;1.50;;;;;;;;5081054;28;45272;-78
2023/10/27 01:26:03;;;;;;;;;0.25;0.25;;;;;;;;5081383;28;45330;-78
2023/10/27 01:28:29;;;;;;;;;0.00;0.00;;;;;;;;5081483;27;45315;-79
2023/10/27 01:30:54;;;;;;;;;0.00;0.00;;;;;;;;5101526;27;45318;-78
2023/10/27 01:33:21;;;;;;;;;1.25;0.00;;;;;;;;5101441;27;45352;-79
2023/10/27 01:35:46;;;;;;;;;1.00;0.00;;;;;;;;5101100;27;45397;-77
2023/10/27 01:38:12;;;;;;;;;1.33;1.33;;;;;;;;5101277;27;45396;-78
2023/10/27 01:40:37;;;;;;;;;0.50;0.50;;;;;;;;5101448;27;45365;-79
2023/10/27 01:43:02;;;;;;;;;2.00;1.33;;;;;;;;5101139;27;45336;-78
2023/10/27 01:45:27;;;;;;;;;1.25;1.00;;;;;;;;5099798;27;45259;-78
2023/10/27 01:47:52;;;;;;;;;2.00;2.00;;;;;;;;5099758;27;45537;-78
2023/10/27 01:50:18;;;;;;;;;1.50;1.50;;;;;;;;5101160;27;45499;-78
2023/10/27 01:52:43;;;;;;;;;2.25;2.00;;;;;;;;5101044;27;46141;-77
2023/10/27 01:55:09;;;;;;;;;2.25;2.25;;;;;;;;5101345;27;45369;-78
2023/10/27 01:57:34;;;;;;;;;2.00;2.00;;;;;;;;5100866;27;45357;-78
2023/10/27 01:59:59;;;;;;;;;1.33;1.33;;;;;;;;5101134;27;45341;-78
2023/10/27 02:02:24;;;;;;;;;2.00;2.00;;;;;;;;5099748;27;48185;-79
2023/10/27 02:04:49;;;;;;;;;2.25;2.25;;;;;;;;5100872;27;45534;-78
2023/10/27 02:07:15;;;;;;;;;4.75;3.00;;;;;;;;5099563;27;45337;-78
2023/10/27 02:09:40;;;;;;;;;1.67;1.33;;;;;;;;5099478;27;46222;-78
2023/10/27 02:12:07;;;;;;;;;2.00;2.00;;;;;;;;5099708;27;45446;-79
2023/10/27 02:14:32;;;;;;;;;2.75;1.00;;;;;;;;5100631;27;45333;-78
2023/10/27 02:16:58;;;;;;;;;1.00;0.00;;;;;;;;5100838;27;45357;-79
2023/10/27 02:19:23;;;;;;;;;0.75;0.00;;;;;;;;5100937;27;45338;-78
2023/10/27 02:21:48;;;;;;;;;1.00;1.00;;;;;;;;5100706;27;46780;-78
2023/10/27 02:24:13;;;;;;;;;2.25;2.00;;;;;;;;5100769;27;45333;-79
2023/10/27 02:26:38;;;;;;;;;1.67;1.00;;;;;;;;5100903;27;45167;-79
2023/10/27 02:29:03;;;;;;;;;1.00;1.00;;;;;;;;5093730;27;45575;-79
2023/10/27 02:31:29;;;;;;;;;2.00;2.00;;;;;;;;5078719;28;47061;-79
2023/10/27 02:33:54;;;;;;;;;0.00;0.00;;;;;;;;5078778;28;45352;-78
2023/10/27 02:36:19;;;;;;;;;4.00;1.67;;;;;;;;5078590;28;45383;-79
2023/10/27 02:38:45;;;;;;;;;0.50;0.50;;;;;;;;5079884;28;45199;-77
2023/10/27 02:41:10;;;;;;;;;2.50;2.00;;;;;;;;5079985;28;46277;-78
2023/10/27 02:43:37;;;;;;;;;0.75;0.75;;;;;;;;5078441;28;45343;-78
2023/10/27 02:46:03;;;;;;;;;0.25;0.25;;;;;;;;5079899;28;45268;-77
2023/10/27 02:48:28;;;;;;;;;1.67;1.67;;;;;;;;5079869;28;45330;-78
2023/10/27 02:50:53;;;;;;;;;1.25;1.25;;;;;;;;5079996;28;46194;-78
2023/10/27 02:53:18;;;;;;;;;2.00;2.00;;;;;;;;5079779;28;45316;-79
2023/10/27 02:55:44;;;;;;;;;3.00;2.75;;;;;;;;5079812;28;45806;-79
2023/10/27 02:58:09;;;;;;;;;1.00;1.00;;;;;;;;5078219;28;47068;-78
2023/10/27 03:00:34;;;;;;;;;1.50;0.75;;;;;;;;5079775;28;45520;-77
2023/10/27 03:02:59;;;;;;;;;3.25;2.00;;;;;;;;5079855;28;45378;-78
2023/10/27 03:05:24;;;;;;;;;2.50;2.50;;;;;;;;5079734;28;45267;-78
2023/10/27 03:07:50;;;;;;;;;4.33;2.33;;;;;;;;5079904;28;45291;-78
2023/10/27 03:10:15;;;;;;;;;2.33;2.33;;;;;;;;5079744;28;46288;-77
2023/10/27 03:12:40;;;;;;;;;5.00;3.00;;;;;;;;5079356;28;45386;-77
2023/10/27 03:15:05;;;;;;;;;1.00;1.00;;;;;;;;5078106;28;45436;-77
2023/10/27 03:17:30;;;;;;;;;2.00;2.00;;;;;;;;5079267;28;45557;-77
2023/10/27 03:19:57;;;;;;;;;3.00;3.00;;;;;;;;5079750;28;46248;-77
2023/10/27 03:22:22;;;;;;;;;3.25;3.25;;;;;;;;5079527;28;45289;-77
2023/10/27 03:24:47;;;;;;;;;1.75;1.75;;;;;;;;5079541;28;45156;-78
2023/10/27 03:27:12;;;;;;;;;2.67;2.67;;;;;;;;5077992;28;46157;-77
2023/10/27 03:29:38;;;;;;;;;2.67;2.67;;;;;;;;5090821;27;45999;-78
2023/10/27 03:32:06;;;;;;;;;3.67;3.67;;;;;;;;5099905;27;45396;-77
2023/10/27 03:34:31;;;;;;;;;2.00;2.00;;;;;;;;5099154;27;45373;-77
2023/10/27 03:36:57;;;;;;;;;3.00;2.75;;;;;;;;5099442;27;45276;-77
2023/10/27 03:39:22;;;;;;;;;3.50;3.00;;;;;;;;5098254;27;48193;-78
2023/10/27 03:41:47;;;;;;;;;4.33;4.00;;;;;;;;5099619;27;45274;-77
2023/10/27 03:44:13;;;;;;;;;3.33;3.33;;;;;;;;5099883;27;45313;-77
2023/10/27 03:46:38;;;;;;;;;3.25;3.25;;;;;;;;5098389;27;45934;-77
2023/10/27 03:49:03;;;;;;;;;1.50;1.50;;;;;;;;5099703;27;45468;-77
2023/10/27 03:51:28;;;;;;;;;2.00;2.00;;;;;;;;5098791;27;45319;-77
2023/10/27 03:53:54;;;;;;;;;0.75;0.75;;;;;;;;5103166;27;45291;-77
2023/10/27 03:56:19;;;;;;;;;2.67;2.67;;;;;;;;5102559;27;45357;-77
2023/10/27 03:58:45;;;;;;;;;3.00;2.25;;;;;;;;5102560;27;46024;-77
2023/10/27 04:01:10;;;;;;;;;2.25;2.25;;;;;;;;5102894;27;45278;-77
2023/10/27 04:03:35;;;;;;;;;3.33;3.33;;;;;;;;5103559;27;45433;-77
2023/10/27 04:06:00;;;;;;;;;5.33;4.33;;;;;;;;5102490;27;45566;-77
2023/10/27 04:08:25;;;;;;;;;2.00;2.00;;;;;;;;5102654;27;46083;-77
2023/10/27 04:10:51;;;;;;;;;3.33;3.00;;;;;;;;5102864;27;45363;-77
2023/10/27 04:13:16;;;;;;;;;1.75;1.75;;;;;;;;5101076;27;45267;-77
2023/10/27 04:15:44;;;;;;;;;3.00;2.75;;;;;;;;5102737;27;45301;-78
2023/10/27 04:18:09;;;;;;;;;2.50;2.50;;;;;;;;5102181;27;45898;-77
2023/10/27 04:20:35;;;;;;;;;3.75;3.00;;;;;;;;5099909;27;45947;-77
2023/10/27 04:23:00;;;;;;;;;2.25;2.25;;;;;;;;5101530;27;45309;-77
2023/10/27 04:25:25;;;;;;;;;5.00;3.25;;;;;;;;5102531;27;45552;-77
2023/10/27 04:27:50;;;;;;;;;3.00;1.33;;;;;;;;5102276;27;45900;-77
2023/10/27 04:30:15;;;;;;;;;2.00;2.00;;;;;;;;5085777;27;45349;-77
2023/10/27 04:32:41;;;;;;;;;3.67;2.33;;;;;;;;5082070;28;45271;-77
2023/10/27 04:35:06;;;;;;;;;3.33;3.33;;;;;;;;5082245;28;45219;-77
2023/10/27 04:37:32;;;;;;;;;3.50;2.25;;;;;;;;5081706;28;46530;-77
2023/10/27 04:39:58;;;;;;;;;3.00;2.50;;;;;;;;5082159;28;45390;-76
2023/10/27 04:42:23;;;;;;;;;2.33;2.33;;;;;;;;5080395;28;45410;-77
2023/10/27 04:44:48;;;;;;;;;2.25;2.25;;;;;;;;5081673;28;45294;-77
2023/10/27 04:47:13;;;;;;;;;3.00;3.00;;;;;;;;5081666;28;45268;-77
2023/10/27 04:49:39;;;;;;;;;5.00;2.50;;;;;;;;5081645;28;45343;-76
2023/10/27 04:52:05;;;;;;;;;3.00;3.00;;;;;;;;5081817;28;45332;-77
2023/10/27 04:54:30;;;;;;;;;3.25;3.25;;;;;;;;5081810;28;45324;-77
2023/10/27 04:56:56;;;;;;;;;5.00;4.00;;;;;;;;5081798;28;45420;-77
2023/10/27 04:59:21;;;;;;;;;4.00;4.00;;;;;;;;5081681;28;45334;-77
2023/10/27 05:01:46;;;;;;;;;4.50;4.00;;;;;;;;5081687;28;45458;-76
2023/10/27 05:04:11;;;;;;;;;4.67;2.67;;;;;;;;5080452;28;45511;-77
2023/10/27 05:06:36;;;;;;;;;4.33;3.33;;;;;;;;5081288;28;45333;-77
2023/10/27 05:09:01;;;;;;;;;4.00;4.00;;;;;;;;5081728;28;45364;-77
2023/10/27 05:11:27;;;;;;;;;2.50;2.50;;;;;;;;5081572;28;45365;-77
2023/10/27 05:13:52;;;;;;;;;4.33;4.33;;;;;;;;5081051;28;45302;-77
2023/10/27 05:16:17;;;;;;;;;6.00;6.00;;;;;;;;5079585;28;46856;-77
2023/10/27 05:18:42;;;;;;;;;6.67;5.00;;;;;;;;5080654;28;45340;-76
2023/10/27 05:21:13;;;;;;;;;4.67;3.33;;;;;;;;5074578;27;45291;-77
2023/10/27 05:23:38;;;;;;;;;5.67;4.00;;;;;;;;5076512;28;45694;-76
2023/10/27 05:26:03;;;;;;;;;4.33;4.00;;;;;;;;5080652;28;46444;-76
2023/10/27 05:28:28;;;;;;;;;3.33;3.33;;;;;;;;5082357;27;45460;-77
2023/10/27 05:30:54;;;;;;;;;7.00;6.00;;;;;;;;5100787;27;45331;-78
2023/10/27 05:33:19;;;;;;;;;6.33;5.33;;;;;;;;5098966;27;46969;-76
2023/10/27 05:35:44;;;;;;;;;7.00;5.00;;;;;;;;5090219;27;45290;-77
2023/10/27 05:38:10;;;;;;;;;5.00;4.00;;;;;;;;5080680;28;45438;-77
2023/10/27 05:40:35;;;;;;;;;8.00;7.33;;;;;;;;5081485;28;45412;-78
2023/10/27 05:43:00;;;;;;;;;9.33;7.00;;;;;;;;5080688;28;45586;-79
2023/10/27 05:45:25;;;;;;;;;9.00;6.33;;;;;;;;5080919;28;46653;-78
2023/10/27 05:47:51;;;;;;;;;6.67;5.67;;;;;;;;5080618;28;45330;-79
2023/10/27 05:50:16;;;;;;;;;5.00;5.00;;;;;;;;5079343;28;45406;-77
2023/10/27 05:52:41;;;;;;;;;7.33;5.00;;;;;;;;5081015;28;45495;-77
2023/10/27 05:55:07;;;;;;;;;4.00;4.00;;;;;;;;5080940;28;46454;-77
2023/10/27 05:57:32;;;;;;;;;5.67;3.33;;;;;;;;5080847;28;45323;-78
2023/10/27 05:59:58;;;;;;;;;5.33;4.00;;;;;;;;5080877;28;45332;-78
2023/10/27 06:02:23;;;;;;;;;5.33;4.33;;;;;;;;5081076;28;45250;-77
2023/10/27 06:04:48;;;;;;;;;6.00;5.00;;;;;;;;5080470;28;45306;-77
2023/10/27 06:07:15;;;;;;;;;6.33;6.33;;;;;;;;5079225;28;45311;-78
2023/10/27 06:09:41;;;;;;;;;2.33;2.33;;;;;;;;5081267;28;45275;-78
2023/10/27 06:12:06;;;;;;;;;4.33;4.00;;;;;;;;5080119;28;46949;-77
2023/10/27 06:14:31;;;;;;;;;5.33;4.33;;;;;;;;5079292;28;46227;-77
2023/10/27 06:16:57;;;;;;;;;3.00;3.00;;;;;;;;5069934;28;45365;-79
2023/10/27 06:19:24;;;;;;;;;3.67;3.33;;;;;;;;5060154;28;45276;-77
2023/10/27 06:21:49;;;;;;;;;3.67;3.00;;;;;;;;5068480;28;46945;-77
2023/10/27 06:24:14;;;;;;;;;3.33;3.33;;;;;;;;5073991;28;46482;-78
2023/10/27 06:26:39;;;;;;;;;4.00;4.00;;;;;;;;5080273;28;45373;-77
2023/10/27 06:29:05;;;;;;;;;3.00;3.00;;;;;;;;5084804;27;45534;-77
2023/10/27 06:31:30;;;;;;;;;3.00;3.00;;;;;;;;5095474;27;45447;-75
2023/10/27 06:33:56;;;;;;;;;4.00;4.00;;;;;;;;5079626;28;47530;-75
2023/10/27 06:36:21;;;;;;;;;3.00;2.33;;;;;;;;5072454;28;45343;-75
2023/10/27 06:38:46;;;;;;;;;2.00;2.00;;;;;;;;5070807;28;45335;-75
2023/10/27 06:41:12;;;;;;;;;4.00;3.33;;;;;;;;5070118;28;45522;-75
2023/10/27 06:43:37;;;;;;;;;1.50;1.50;;;;;;;;5067155;28;47509;-75
2023/10/27 06:46:02;;;;;;;;;4.25;4.00;;;;;;;;5069574;28;45217;-75
2023/10/27 06:48:27;;;;;;;;;4.00;3.67;;;;;;;;5075678;28;45218;-75
2023/10/27 06:50:53;;;;;;;;;2.33;1.33;;;;;;;;5068460;28;45587;-75
2023/10/27 06:53:18;;;;;;;;;2.75;2.75;;;;;;;;5065469;28;45562;-75
2023/10/27 06:55:43;;;;;;;;;3.67;3.00;;;;;;;;5066943;28;45217;-75
2023/10/27 06:58:08;;;;;;;;;4.50;2.25;;;;;;;;5069682;28;45618;-76
2023/10/27 07:00:34;;;;;;;;;3.25;3.25;;;;;;;;5071886;28;45619;-77
2023/10/27 07:02:59;;;;;;;;;4.25;2.75;;;;;;;;5073847;28;45509;-75
2023/10/27 07:05:24;;;;;;;;;4.50;3.00;;;;;;;;5066896;28;45361;-75
2023/10/27 07:07:50;;;;;;;;;4.50;4.50;;;;;;;;5062234;28;45209;-76
2023/10/27 07:10:16;;;;;;;;;4.00;3.67;;;;;;;;5065247;28;45201;-77
2023/10/27 07:12:41;;;;;;;;;6.00;4.50;;;;;;;;5065730;28;46188;-75
2023/10/27 07:15:06;;;;;;;;;4.00;4.00;;;;;;;;5066336;28;45212;-75
2023/10/27 07:17:31;;;;;;;;;7.00;6.33;;;;;;;;5066508;28;45415;-76
2023/10/27 07:19:56;;;;;;;;;5.00;3.67;;;;;;;;5063216;28;45497;-76
2023/10/27 07:22:22;;;;;;;;;4.33;3.33;;;;;;;;5065371;28;47057;-75
2023/10/27 07:24:47;;;;;;;;;4.67;3.67;;;;;;;;5066218;28;45349;-77
2023/10/27 07:27:12;;;;;;;;;3.00;3.00;;;;;;;;5064822;28;45298;-77
2023/10/27 07:29:37;;;;;;;;;3.33;2.33;;;;;;;;5090468;27;45502;-76
2023/10/27 07:32:03;;;;;;;;;5.33;3.67;;;;;;;;5109482;27;45254;-75
2023/10/27 07:34:28;;;;;;;;;4.33;4.33;;;;;;;;5102102;27;45320;-76
2023/10/27 07:36:54;;;;;;;;;5.00;4.33;;;;;;;;5087870;28;45267;-76
2023/10/27 07:39:19;;;;;;;;;5.00;3.67;;;;;;;;5093207;28;45338;-77
2023/10/27 07:41:44;;;;;;;;;4.00;4.00;;;;;;;;5086906;28;46099;-76
2023/10/27 07:44:09;;;;;;;;;6.33;4.33;;;;;;;;5089997;28;45381;-76
2023/10/27 07:46:35;;;;;;;;;3.33;3.33;;;;;;;;5090181;28;45342;-75
2023/10/27 07:49:00;;;;;;;;;5.33;3.33;;;;;;;;5085652;28;46063;-76
2023/10/27 07:51:25;;;;;;;;;4.00;3.33;;;;;;;;5086603;28;46848;-77
2023/10/27 07:53:50;;;;;;;;;4.33;3.67;;;;;;;;5084983;28;45394;-77
2023/10/27 07:56:18;;;;;;;;;4.33;3.33;;;;;;;;5084377;28;45262;-77
2023/10/27 07:58:43;;;;;;;;;3.00;2.00;;;;;;;;5085016;28;46154;-76
2023/10/27 08:01:08;;;;;;;;;4.00;2.00;;;;;;;;5071493;28;47303;-77
2023/10/27 08:03:33;;;;;;;;;2.33;1.00;;;;;;;;5074566;27;45319;-77
2023/10/27 08:05:59;;;;;;;;;4.00;3.67;;;;;;;;5073708;27;45314;-77
2023/10/27 08:08:24;;;;;;;;;2.33;2.33;;;;;;;;5071149;28;46205;-76
2023/10/27 08:10:49;;;;;;;;;2.33;2.33;;;;;;;;5078024;27;48129;-76
2023/10/27 08:13:18;;;;;;;;;5.00;2.67;;;;;;;;5068831;27;47256;-76
2023/10/27 08:15:44;;;;;;;;;3.00;3.00;;;;;;;;5070083;27;45375;-76
2023/10/27 08:18:10;;;;;;;;;4.00;4.00;;;;;;;;5068731;28;45397;-75
2023/10/27 08:20:35;;;;;;;;;3.33;2.00;;;;;;;;5084132;27;45504;-76
2023/10/27 08:23:00;;;;;;;;;5.00;1.50;;;;;;;;5082538;28;45367;-77
2023/10/27 08:25:25;;;;;;;;;2.67;1.67;;;;;;;;5096309;27;45341;-76
2023/10/27 08:27:51;;;;;;;;;4.00;2.75;;;;;;;;5086289;27;46060;-77
2023/10/27 08:30:16;;;;;;;;;3.67;2.67;;;;;;;;5084759;27;45791;-76
2023/10/27 08:32:41;;;;;;;;;5.00;3.00;;;;;;;;5071129;28;46472;-76
2023/10/27 08:35:07;;;;;;;;;2.00;2.00;;;;;;;;5071735;28;46494;-75
2023/10/27 08:37:32;;;;;;;;;4.67;3.00;;;;;;;;5076487;28;45298;-76
2023/10/27 08:39:57;;;;;;;;;5.00;2.00;;;;;;;;5073175;28;45280;-76
2023/10/27 08:42:23;;;;;;;;;2.50;2.50;;;;;;;;5069599;28;45436;-76
2023/10/27 08:44:48;;;;;;;;;1.75;1.75;;;;;;;;5075835;28;45280;-77
2023/10/27 08:47:13;;;;;;;;;3.25;2.00;;;;;;;;5074087;28;45207;-76
2023/10/27 08:49:39;;;;;;;;;3.00;2.00;;;;;;;;5079778;28;48306;-76
2023/10/27 08:52:04;;;;;;;;;2.00;0.75;;;;;;;;5079104;28;45472;-76
2023/10/27 08:54:30;;;;;;;;;3.75;2.00;;;;;;;;5080869;28;45345;-76
2023/10/27 08:56:56;;;;;;;;;3.00;2.50;;;;;;;;5079119;28;46135;-76
2023/10/27 08:59:21;;;;;;;;;1.00;0.33;;;;;;;;5080140;28;45505;-76
2023/10/27 09:01:46;;;;;;;;;5.00;4.00;;;;;;;;5080152;28;45493;-76
2023/10/27 09:04:12;;;;;;;;;1.00;1.00;;;;;;;;5081442;28;45418;-77
2023/10/27 09:06:38;;;;;;;;;1.00;1.00;;;;;;;;5080825;28;45591;-77
2023/10/27 09:09:05;;;;;;;;;2.50;1.50;;;;;;;;5068656;28;48444;-76
2023/10/27 09:11:37;;;;;;;;;3.50;2.25;;;;;;;;5062979;28;45340;-78
2023/10/27 09:14:15;;;;;;;;;2.00;2.00;;;;;;;;5058630;28;45423;-76
2023/10/27 09:16:40;;;;;;;;;2.00;1.50;;;;;;;;5075206;28;45295;-77
2023/10/27 09:19:16;;;;;;;;;2.00;1.25;;;;;;;;5080095;28;47166;-77
2023/10/27 09:21:44;;;;;;;;;2.25;1.25;;;;;;;;5085170;28;45325;-77
2023/10/27 09:24:10;;;;;;;;;1.75;1.75;;;;;;;;5082591;28;45302;-76
2023/10/27 09:26:45;;;;;;;;;0.00;0.00;;;;;;;;5080530;28;45481;-76
2023/10/27 09:29:11;;;;;;;;;1.00;1.00;;;;;;;;5091065;27;45278;-78
2023/10/27 09:31:36;;;;;;;;;2.00;2.00;;;;;;;;5093800;27;45759;-76
2023/10/27 09:34:20;;;;;;;;;2.00;1.50;;;;;;;;5063726;28;45299;-76
2023/10/27 09:36:47;;;;;;;;;3.00;2.75;;;;;;;;5070409;28;45515;-76
2023/10/27 09:39:16;;;;;;;;;1.75;0.00;;;;;;;;5069998;28;47527;-76
2023/10/27 09:41:43;;;;;;;;;1.50;1.00;;;;;;;;5068306;28;45361;-75
2023/10/27 09:44:10;;;;;;;;;1.00;1.00;;;;;;;;5070349;28;45281;-75
2023/10/27 09:46:37;;;;;;;;;2.67;2.67;;;;;;;;5067144;28;47324;-75
2023/10/27 09:49:03;;;;;;;;;0.75;0.75;;;;;;;;5071358;28;46269;-75
2023/10/27 09:51:29;;;;;;;;;1.67;1.67;;;;;;;;5072085;28;45559;-75
2023/10/27 09:53:56;;;;;;;;;2.00;2.00;;;;;;;;5068234;27;45842;-76
2023/10/27 09:56:22;;;;;;;;;3.25;2.00;;;;;;;;5071522;28;45334;-76
2023/10/27 09:58:47;;;;;;;;;5.00;3.00;;;;;;;;5067651;28;47128;-76
2023/10/27 10:01:15;;;;;;;;;3.75;1.00;;;;;;;;5067981;28;45377;-76
2023/10/27 10:03:40;;;;;;;;;2.00;1.00;;;;;;;;5070555;28;45248;-78
2023/10/27 10:06:12;;;;;;;;;1.75;1.75;;;;;;;;5074341;28;45415;-76
2023/10/27 10:08:37;;;;;;;;;2.50;2.00;;;;;;;;5064814;28;47423;-77
2023/10/27 10:11:15;;;;;;;;;2.75;2.75;;;;;;;;5061213;28;45276;-78
2023/10/27 10:13:40;;;;;;;;;4.00;1.25;;;;;;;;5062558;28;45291;-78
2023/10/27 10:16:06;;;;;;;;;1.00;0.75;;;;;;;;5080131;28;45211;-78
2023/10/27 10:18:34;;;;;;;;;0.50;0.50;;;;;;;;5081963;28;45434;-77
2023/10/27 10:20:59;;;;;;;;;2.75;2.25;;;;;;;;5081196;28;45258;-78
2023/10/27 10:23:46;;;;;;;;;2.00;2.00;;;;;;;;5082603;28;45340;-76
2023/10/27 10:26:11;;;;;;;;;2.00;2.00;;;;;;;;5081729;28;45334;-76
2023/10/27 10:28:36;;;;;;;;;2.00;2.00;;;;;;;;5083616;27;46995;-77
2023/10/27 10:31:07;;;;;;;;;1.00;0.00;;;;;;;;5102280;27;45369;-78
2023/10/27 10:33:34;;;;;;;;;3.00;2.75;;;;;;;;5103731;27;45342;-77
2023/10/27 10:36:11;;;;;;;;;2.00;1.00;;;;;;;;5102597;27;45529;-76
2023/10/27 10:38:37;;;;;;;;;1.00;1.00;;;;;;;;5100938;27;45624;-75
2023/10/27 10:41:02;;;;;;;;;0.00;0.00;;;;;;;;5099020;27;45744;-75
2023/10/27 10:43:34;;;;;;;;;1.50;1.50;;;;;;;;5099011;27;45314;-75
2023/10/27 10:46:06;;;;;;;;;0.00;0.00;;;;;;;;5100506;27;45357;-75
2023/10/27 10:48:31;;;;;;;;;1.50;0.25;;;;;;;;5101132;27;46555;-74
2023/10/27 10:51:03;;;;;;;;;2.00;1.00;;;;;;;;5099185;27;45279;-74
2023/10/27 10:53:30;;;;;;;;;3.25;2.25;;;;;;;;5093881;27;45507;-75
2023/10/27 10:55:56;;;;;;;;;2.00;1.50;;;;;;;;5068650;28;45470;-76
2023/10/27 10:58:40;;;;;;;;;2.67;2.33;;;;;;;;5068816;28;46062;-75
2023/10/27 11:01:14;;;;;;;;;2.25;1.00;;;;;;;;5071151;28;45233;-75
2023/10/27 11:03:45;;;;;;;;;2.00;2.00;;;;;;;;5080952;28;45228;-76
2023/10/27 11:06:10;;;;;;;;;5.25;3.50;;;;;;;;5081099;28;45322;-76
2023/10/27 11:08:37;;;;;;;;;1.50;1.50;;;;;;;;5063192;28;46335;-75
2023/10/27 11:11:03;;;;;;;;;1.75;1.75;;;;;;;;5063152;28;45231;-76
2023/10/27 11:13:29;;;;;;;;;3.00;2.00;;;;;;;;5062865;28;45207;-76
2023/10/27 11:15:55;;;;;;;;;1.00;1.00;;;;;;;;5062769;28;45225;-74
2023/10/27 11:18:20;;;;;;;;;2.00;2.00;;;;;;;;5061292;28;46838;-76
2023/10/27 11:20:45;;;;;;;;;1.25;1.00;;;;;;;;5062162;28;45252;-75
2023/10/27 11:23:10;;;;;;;;;1.25;1.25;;;;;;;;5061957;28;45384;-76
2023/10/27 11:25:36;;;;;;;;;1.00;1.00;;;;;;;;5062466;28;45287;-75
2023/10/27 11:28:36;;;;;;;;;1.50;1.50;;;;;;;;5062434;28;45299;-75
2023/10/27 11:31:20;;;;;;;;;2.50;1.00;;;;;;;;5042767;28;45534;-76
2023/10/27 11:33:56;;;;;;;;;1.00;1.00;;;;;;;;5063881;28;45279;-75
2023/10/27 11:36:22;;;;;;;;;2.00;0.75;;;;;;;;5069582;28;45476;-76
2023/10/27 11:38:47;;;;;;;;;1.50;1.50;;;;;;;;5082749;28;46133;-75
2023/10/27 11:41:15;;;;;;;;;2.50;1.75;;;;;;;;5081356;28;45329;-75
2023/10/27 11:43:40;;;;;;;;;3.00;3.00;;;;;;;;5082560;28;45173;-75
2023/10/27 11:46:12;;;;;;;;;1.75;1.00;;;;;;;;5080992;28;46168;-76
2023/10/27 11:48:38;;;;;;;;;2.00;2.00;;;;;;;;5082163;28;45418;-76
2023/10/27 11:51:03;;;;;;;;;3.00;3.00;;;;;;;;5082521;28;45180;-75
2023/10/27 11:53:28;;;;;;;;;3.00;1.00;;;;;;;;5069400;28;45219;-74
2023/10/27 11:55:54;;;;;;;;;2.75;1.00;;;;;;;;5064772;28;45202;-75
2023/10/27 11:58:19;;;;;;;;;2.00;2.00;;;;;;;;5061557;28;46024;-76
2023/10/27 12:00:44;;;;;;;;;1.50;1.50;;;;;;;;5062219;28;45154;-75
2023/10/27 12:03:09;;;;;;;;;1.00;1.00;;;;;;;;5062514;28;45607;-78
2023/10/27 12:05:34;;;;;;;;;4.75;3.00;;;;;;;;5062810;28;47196;-75
2023/10/27 12:07:59;;;;;;;;;3.25;2.75;;;;;;;;5059366;28;45533;-74
2023/10/27 12:10:25;;;;;;;;;4.50;2.00;;;;;;;;5059475;28;45307;-74
2023/10/27 12:12:50;;;;;;;;;3.50;3.50;;;;;;;;5059882;28;45623;-76
2023/10/27 12:15:15;;;;;;;;;3.00;1.75;;;;;;;;5077570;28;45340;-74
2023/10/27 12:17:40;;;;;;;;;3.00;1.00;;;;;;;;5081016;27;46132;-75
2023/10/27 12:20:06;;;;;;;;;1.75;1.00;;;;;;;;5080216;28;45387;-75
2023/10/27 12:22:32;;;;;;;;;1.25;1.00;;;;;;;;5081053;27;45265;-74
2023/10/27 12:24:57;;;;;;;;;2.50;1.00;;;;;;;;5080172;28;47136;-74
2023/10/27 12:27:22;;;;;;;;;3.00;3.00;;;;;;;;5079944;28;46985;-75
2023/10/27 12:29:47;;;;;;;;;3.75;2.50;;;;;;;;5079944;28;45456;-74
2023/10/27 12:32:13;;;;;;;;;2.25;1.75;;;;;;;;5081883;28;45286;-75
2023/10/27 12:34:38;;;;;;;;;2.00;2.00;;;;;;;;5081639;28;45314;-75
2023/10/27 12:37:03;;;;;;;;;3.25;2.75;;;;;;;;5081630;28;45353;-76
2023/10/27 12:39:28;;;;;;;;;1.75;1.25;;;;;;;;5081838;28;45256;-76
2023/10/27 12:41:54;;;;;;;;;1.25;1.00;;;;;;;;5079471;28;45340;-75
2023/10/27 12:44:19;;;;;;;;;3.75;2.00;;;;;;;;5061474;28;45339;-75
2023/10/27 12:46:44;;;;;;;;;2.25;1.75;;;;;;;;5059645;28;47516;-75
2023/10/27 12:49:10;;;;;;;;;3.00;3.00;;;;;;;;5066448;28;45351;-76
2023/10/27 12:51:38;;;;;;;;;2.25;1.00;;;;;;;;5069469;28;45371;-75
2023/10/27 12:54:03;;;;;;;;;1.25;1.25;;;;;;;;5071442;28;45532;-75
2023/10/27 12:56:28;;;;;;;;;2.75;1.75;;;;;;;;5067609;28;47662;-76
2023/10/27 12:58:53;;;;;;;;;2.00;2.00;;;;;;;;5072533;28;46281;-76
2023/10/27 13:01:18;;;;;;;;;4.50;3.25;;;;;;;;5070529;28;45426;-76
2023/10/27 13:03:44;;;;;;;;;2.25;2.00;;;;;;;;5067619;28;46083;-75
2023/10/27 13:06:13;;;;;;;;;4.00;4.00;;;;;;;;5074869;27;45399;-75
2023/10/27 13:08:38;;;;;;;;;2.75;2.50;;;;;;;;5076610;28;45396;-76
2023/10/27 13:11:04;;;;;;;;;2.25;1.00;;;;;;;;5067745;28;45287;-75
2023/10/27 13:13:29;;;;;;;;;2.00;2.00;;;;;;;;5060500;28;46017;-75
2023/10/27 13:15:55;;;;;;;;;3.75;2.25;;;;;;;;5059867;28;46442;-77
2023/10/27 13:18:20;;;;;;;;;4.50;2.00;;;;;;;;5060449;28;45443;-76
2023/10/27 13:20:45;;;;;;;;;3.50;1.00;;;;;;;;5061085;28;45477;-76
2023/10/27 13:23:10;;;;;;;;;2.75;2.00;;;;;;;;5068126;28;45575;-77
2023/10/27 13:25:35;;;;;;;;;2.50;2.50;;;;;;;;5074801;28;47257;-75
2023/10/27 13:28:00;;;;;;;;;3.25;2.50;;;;;;;;5070967;28;45311;-76
2023/10/27 13:30:26;;;;;;;;;2.00;0.00;;;;;;;;5096679;27;45607;-76
2023/10/27 13:32:51;;;;;;;;;2.50;2.50;;;;;;;;5070982;27;45538;-75
2023/10/27 13:35:16;;;;;;;;;3.50;2.50;;;;;;;;5059880;28;45560;-76
2023/10/27 13:37:42;;;;;;;;;5.50;3.00;;;;;;;;5059148;28;45394;-75
2023/10/27 13:40:08;;;;;;;;;2.75;2.25;;;;;;;;5060732;28;45212;-75
2023/10/27 13:42:33;;;;;;;;;1.25;0.25;;;;;;;;5060273;28;45630;-74
2023/10/27 13:45:00;;;;;;;;;3.00;3.00;;;;;;;;5063418;28;47206;-75
2023/10/27 13:47:27;;;;;;;;;1.25;1.00;;;;;;;;5070927;28;45897;-75
2023/10/27 13:49:53;;;;;;;;;5.25;2.00;;;;;;;;5072400;27;45393;-75
2023/10/27 13:52:18;;;;;;;;;5.00;3.00;;;;;;;;5071535;28;45334;-75
2023/10/27 13:54:44;;;;;;;;;1.75;1.00;;;;;;;;5059981;28;45553;-76
2023/10/27 13:57:09;;;;;;;;;1.25;1.00;;;;;;;;5078795;27;45440;-75
2023/10/27 13:59:34;;;;;;;;;2.00;2.00;;;;;;;;5080469;28;45642;-74
2023/10/27 14:02:00;;;;;;;;;2.00;2.00;;;;;;;;5079917;27;45358;-74
2023/10/27 14:04:25;;;;;;;;;2.75;2.50;;;;;;;;5080056;27;45948;-74
2023/10/27 14:06:51;;;;;;;;;2.00;2.00;;;;;;;;5095706;27;45379;-74
2023/10/27 14:09:17;;;;;;;;;2.25;1.00;;;;;;;;5099479;27;45412;-74
2023/10/27 14:11:44;;;;;;;;;4.00;2.00;;;;;;;;5099025;27;45349;-74
2023/10/27 14:14:12;;;;;;;;;2.00;2.00;;;;;;;;5100164;27;47010;-75
2023/10/27 14:16:37;;;;;;;;;2.50;2.50;;;;;;;;5091128;27;45353;-74
2023/10/27 14:19:02;;;;;;;;;3.00;1.75;;;;;;;;5079819;28;45432;-74
2023/10/27 14:21:27;;;;;;;;;3.00;3.00;;;;;;;;5078328;27;45334;-75
2023/10/27 14:23:52;;;;;;;;;3.25;2.25;;;;;;;;5079283;28;45362;-74
2023/10/27 14:26:18;;;;;;;;;1.75;0.75;;;;;;;;5096214;27;45957;-74
2023/10/27 14:28:43;;;;;;;;;4.25;1.25;;;;;;;;5094850;27;45366;-73
2023/10/27 14:31:09;;;;;;;;;2.00;1.00;;;;;;;;5079710;28;45456;-72
2023/10/27 14:33:34;;;;;;;;;3.00;1.75;;;;;;;;5078255;27;48142;-73
2023/10/27 14:36:03;;;;;;;;;3.50;3.25;;;;;;;;5079402;28;45397;-74